sensor_id;sensor_type;location;lat;lon;timestamp;pressure;altitude;pressure_sealevel;temperature
18219;BMP180;9234;49.344;11.120;2023-07-08T00:00:28;97761.00;;;16.90
18219;BMP180;9234;49.344;11.120;2023-07-08T00:02:58;97771.00;;;16.90
18219;BMP180;9234;49.344;11.120;2023-07-08T00:05:26;97777.00;;;16.80
18219;BMP180;9234;49.344;11.120;2023-07-08T00:07:55;97780.00;;;16.80
18219;BMP180;9234;49.344;11.120;2023-07-08T00:10:26;97781.00;;;16.80
18219;BMP180;9234;49.344;11.120;2023-07-08T00:12:56;97773.00;;;16.70
18219;BMP180;9234;49.344;11.120;2023-07-08T00:15:29;97780.00;;;16.70
18219;BMP180;9234;49.344;11.120;2023-07-08T00:17:59;97772.00;;;16.60
18219;BMP180;9234;49.344;11.120;2023-07-08T00:20:32;97778.00;;;16.60
18219;BMP180;9234;49.344;11.120;2023-07-08T00:23:02;97777.00;;;16.60
18219;BMP180;9234;49.344;11.120;2023-07-08T00:25:32;97781.00;;;16.50
18219;BMP180;9234;49.344;11.120;2023-07-08T00:28:00;97778.00;;;16.50
18219;BMP180;9234;49.344;11.120;2023-07-08T00:30:30;97773.00;;;16.50
18219;BMP180;9234;49.344;11.120;2023-07-08T00:33:00;97767.00;;;16.50
18219;BMP180;9234;49.344;11.120;2023-07-08T00:35:32;97774.00;;;16.40
18219;BMP180;9234;49.344;11.120;2023-07-08T00:38:04;97772.00;;;16.40
18219;BMP180;9234;49.344;11.120;2023-07-08T00:40:51;97768.00;;;16.30
18219;BMP180;9234;49.344;11.120;2023-07-08T00:43:25;97771.00;;;16.30
18219;BMP180;9234;49.344;11.120;2023-07-08T00:46:12;97767.00;;;16.30
18219;BMP180;9234;49.344;11.120;2023-07-08T00:48:45;97776.00;;;16.30
18219;BMP180;9234;49.344;11.120;2023-07-08T00:51:15;97775.00;;;16.20
18219;BMP180;9234;49.344;11.120;2023-07-08T00:53:45;97773.00;;;16.20
18219;BMP180;9234;49.344;11.120;2023-07-08T00:56:25;97776.00;;;16.20
18219;BMP180;9234;49.344;11.120;2023-07-08T00:59:01;97780.00;;;16.20
18219;BMP180;9234;49.344;11.120;2023-07-08T01:01:35;97793.00;;;16.10
18219;BMP180;9234;49.344;11.120;2023-07-08T01:04:11;97790.00;;;16.10
18219;BMP180;9234;49.344;11.120;2023-07-08T01:06:46;97789.00;;;16.10
18219;BMP180;9234;49.344;11.120;2023-07-08T01:09:16;97773.00;;;16.10
18219;BMP180;9234;49.344;11.120;2023-07-08T01:11:45;97769.00;;;16.00
18219;BMP180;9234;49.344;11.120;2023-07-08T01:14:19;97765.00;;;16.00
18219;BMP180;9234;49.344;11.120;2023-07-08T01:16:48;97760.00;;;16.00
18219;BMP180;9234;49.344;11.120;2023-07-08T01:19:21;97760.00;;;16.00
18219;BMP180;9234;49.344;11.120;2023-07-08T01:22:01;97758.00;;;15.90
18219;BMP180;9234;49.344;11.120;2023-07-08T01:24:33;97750.00;;;15.90
18219;BMP180;9234;49.344;11.120;2023-07-08T01:27:07;97755.00;;;15.90
18219;BMP180;9234;49.344;11.120;2023-07-08T01:29:36;97754.00;;;15.90
18219;BMP180;9234;49.344;11.120;2023-07-08T01:32:05;97751.00;;;15.90
18219;BMP180;9234;49.344;11.120;2023-07-08T01:34:36;97752.00;;;15.80
18219;BMP180;9234;49.344;11.120;2023-07-08T01:37:10;97750.00;;;15.80
18219;BMP180;9234;49.344;11.120;2023-07-08T01:39:39;97745.00;;;15.80
18219;BMP180;9234;49.344;11.120;2023-07-08T01:42:07;97749.00;;;15.80
18219;BMP180;9234;49.344;11.120;2023-07-08T01:44:37;97744.00;;;15.70
18219;BMP180;9234;49.344;11.120;2023-07-08T01:47:11;97744.00;;;15.70
18219;BMP180;9234;49.344;11.120;2023-07-08T01:49:43;97766.00;;;15.70
18219;BMP180;9234;49.344;11.120;2023-07-08T01:52:16;97758.00;;;15.70
18219;BMP180;9234;49.344;11.120;2023-07-08T01:54:54;97750.00;;;15.70
18219;BMP180;9234;49.344;11.120;2023-07-08T01:57:22;97766.00;;;15.70
18219;BMP180;9234;49.344;11.120;2023-07-08T01:59:51;97754.00;;;15.60
18219;BMP180;9234;49.344;11.120;2023-07-08T02:02:19;97756.00;;;15.60
18219;BMP180;9234;49.344;11.120;2023-07-08T02:04:47;97749.00;;;15.60
18219;BMP180;9234;49.344;11.120;2023-07-08T02:07:17;97745.00;;;15.60
18219;BMP180;9234;49.344;11.120;2023-07-08T02:09:45;97756.00;;;15.60
18219;BMP180;9234;49.344;11.120;2023-07-08T02:12:13;97759.00;;;15.60
18219;BMP180;9234;49.344;11.120;2023-07-08T02:14:41;97750.00;;;15.60
18219;BMP180;9234;49.344;11.120;2023-07-08T02:17:10;97760.00;;;15.60
18219;BMP180;9234;49.344;11.120;2023-07-08T02:19:38;97759.00;;;15.50
18219;BMP180;9234;49.344;11.120;2023-07-08T02:22:06;97761.00;;;15.50
18219;BMP180;9234;49.344;11.120;2023-07-08T02:24:36;97755.00;;;15.50
18219;BMP180;9234;49.344;11.120;2023-07-08T02:27:04;97761.00;;;15.40
18219;BMP180;9234;49.344;11.120;2023-07-08T02:29:33;97754.00;;;15.40
18219;BMP180;9234;49.344;11.120;2023-07-08T02:32:02;97760.00;;;15.30
18219;BMP180;9234;49.344;11.120;2023-07-08T02:34:30;97756.00;;;15.30
18219;BMP180;9234;49.344;11.120;2023-07-08T02:36:58;97775.00;;;15.30
18219;BMP180;9234;49.344;11.120;2023-07-08T02:39:27;97750.00;;;15.20
18219;BMP180;9234;49.344;11.120;2023-07-08T02:41:56;97743.00;;;15.20
18219;BMP180;9234;49.344;11.120;2023-07-08T02:44:25;97748.00;;;15.10
18219;BMP180;9234;49.344;11.120;2023-07-08T02:46:53;97753.00;;;15.00
18219;BMP180;9234;49.344;11.120;2023-07-08T02:49:22;97756.00;;;15.00
18219;BMP180;9234;49.344;11.120;2023-07-08T02:51:50;97746.00;;;14.90
18219;BMP180;9234;49.344;11.120;2023-07-08T02:54:18;97766.00;;;14.90
18219;BMP180;9234;49.344;11.120;2023-07-08T02:56:47;97759.00;;;14.80
18219;BMP180;9234;49.344;11.120;2023-07-08T02:59:16;97756.00;;;14.80
18219;BMP180;9234;49.344;11.120;2023-07-08T03:01:44;97768.00;;;14.70
18219;BMP180;9234;49.344;11.120;2023-07-08T03:04:14;97759.00;;;14.70
18219;BMP180;9234;49.344;11.120;2023-07-08T03:06:43;97757.00;;;14.70
18219;BMP180;9234;49.344;11.120;2023-07-08T03:09:13;97768.00;;;14.60
18219;BMP180;9234;49.344;11.120;2023-07-08T03:11:41;97776.00;;;14.60
18219;BMP180;9234;49.344;11.120;2023-07-08T03:14:09;97780.00;;;14.50
18219;BMP180;9234;49.344;11.120;2023-07-08T03:16:39;97783.00;;;14.50
18219;BMP180;9234;49.344;11.120;2023-07-08T03:19:11;97772.00;;;14.50
18219;BMP180;9234;49.344;11.120;2023-07-08T03:21:42;97773.00;;;14.40
18219;BMP180;9234;49.344;11.120;2023-07-08T03:24:11;97779.00;;;14.40
18219;BMP180;9234;49.344;11.120;2023-07-08T03:26:43;97780.00;;;14.30
18219;BMP180;9234;49.344;11.120;2023-07-08T03:29:15;97775.00;;;14.30
18219;BMP180;9234;49.344;11.120;2023-07-08T03:31:46;97774.00;;;14.30
18219;BMP180;9234;49.344;11.120;2023-07-08T03:34:16;97787.00;;;14.30
18219;BMP180;9234;49.344;11.120;2023-07-08T03:36:49;97788.00;;;14.30
18219;BMP180;9234;49.344;11.120;2023-07-08T03:39:20;97795.00;;;14.20
18219;BMP180;9234;49.344;11.120;2023-07-08T03:41:50;97786.00;;;14.20
18219;BMP180;9234;49.344;11.120;2023-07-08T03:44:20;97792.00;;;14.20
18219;BMP180;9234;49.344;11.120;2023-07-08T03:46:50;97797.00;;;14.20
18219;BMP180;9234;49.344;11.120;2023-07-08T03:49:22;97808.00;;;14.20
18219;BMP180;9234;49.344;11.120;2023-07-08T03:51:53;97810.00;;;14.10
18219;BMP180;9234;49.344;11.120;2023-07-08T03:54:24;97800.00;;;14.10
18219;BMP180;9234;49.344;11.120;2023-07-08T03:56:58;97804.00;;;14.10
18219;BMP180;9234;49.344;11.120;2023-07-08T03:59:27;97800.00;;;14.10
18219;BMP180;9234;49.344;11.120;2023-07-08T04:01:58;97807.00;;;14.10
18219;BMP180;9234;49.344;11.120;2023-07-08T04:04:28;97799.00;;;14.10
18219;BMP180;9234;49.344;11.120;2023-07-08T04:06:56;97789.00;;;14.10
18219;BMP180;9234;49.344;11.120;2023-07-08T04:09:25;97805.00;;;14.10
18219;BMP180;9234;49.344;11.120;2023-07-08T04:11:53;97791.00;;;14.20
18219;BMP180;9234;49.344;11.120;2023-07-08T04:14:21;97786.00;;;14.20
18219;BMP180;9234;49.344;11.120;2023-07-08T04:16:54;97783.00;;;14.20
18219;BMP180;9234;49.344;11.120;2023-07-08T04:19:26;97788.00;;;14.20
18219;BMP180;9234;49.344;11.120;2023-07-08T04:21:54;97779.00;;;14.20
18219;BMP180;9234;49.344;11.120;2023-07-08T04:24:23;97781.00;;;14.30
18219;BMP180;9234;49.344;11.120;2023-07-08T04:26:51;97773.00;;;14.30
18219;BMP180;9234;49.344;11.120;2023-07-08T04:29:22;97782.00;;;14.40
18219;BMP180;9234;49.344;11.120;2023-07-08T04:31:51;97787.00;;;14.40
18219;BMP180;9234;49.344;11.120;2023-07-08T04:34:19;97792.00;;;14.50
18219;BMP180;9234;49.344;11.120;2023-07-08T04:36:49;97798.00;;;14.60
18219;BMP180;9234;49.344;11.120;2023-07-08T04:39:17;97795.00;;;14.60
18219;BMP180;9234;49.344;11.120;2023-07-08T04:41:45;97789.00;;;14.70
18219;BMP180;9234;49.344;11.120;2023-07-08T04:44:14;97803.00;;;14.80
18219;BMP180;9234;49.344;11.120;2023-07-08T04:46:49;97798.00;;;14.80
18219;BMP180;9234;49.344;11.120;2023-07-08T04:49:18;97789.00;;;14.90
18219;BMP180;9234;49.344;11.120;2023-07-08T04:51:48;97786.00;;;14.90
18219;BMP180;9234;49.344;11.120;2023-07-08T04:54:16;97791.00;;;15.00
18219;BMP180;9234;49.344;11.120;2023-07-08T04:56:47;97787.00;;;15.10
18219;BMP180;9234;49.344;11.120;2023-07-08T04:59:19;97804.00;;;15.20
18219;BMP180;9234;49.344;11.120;2023-07-08T05:01:47;97794.00;;;15.20
18219;BMP180;9234;49.344;11.120;2023-07-08T05:04:18;97792.00;;;15.30
18219;BMP180;9234;49.344;11.120;2023-07-08T05:06:49;97801.00;;;15.40
18219;BMP180;9234;49.344;11.120;2023-07-08T05:09:18;97802.00;;;15.50
18219;BMP180;9234;49.344;11.120;2023-07-08T05:11:49;97801.00;;;15.60
18219;BMP180;9234;49.344;11.120;2023-07-08T05:14:17;97810.00;;;15.70
18219;BMP180;9234;49.344;11.120;2023-07-08T05:16:45;97815.00;;;15.80
18219;BMP180;9234;49.344;11.120;2023-07-08T05:19:14;97820.00;;;15.90
18219;BMP180;9234;49.344;11.120;2023-07-08T05:21:42;97818.00;;;16.00
18219;BMP180;9234;49.344;11.120;2023-07-08T05:24:13;97823.00;;;16.20
18219;BMP180;9234;49.344;11.120;2023-07-08T05:26:41;97812.00;;;16.30
18219;BMP180;9234;49.344;11.120;2023-07-08T05:29:10;97822.00;;;16.50
18219;BMP180;9234;49.344;11.120;2023-07-08T05:31:38;97826.00;;;16.60
18219;BMP180;9234;49.344;11.120;2023-07-08T05:34:15;97824.00;;;16.70
18219;BMP180;9234;49.344;11.120;2023-07-08T05:36:43;97824.00;;;16.90
18219;BMP180;9234;49.344;11.120;2023-07-08T05:39:13;97833.00;;;17.00
18219;BMP180;9234;49.344;11.120;2023-07-08T05:41:41;97828.00;;;17.10
18219;BMP180;9234;49.344;11.120;2023-07-08T05:44:09;97838.00;;;17.20
18219;BMP180;9234;49.344;11.120;2023-07-08T05:46:38;97831.00;;;17.40
18219;BMP180;9234;49.344;11.120;2023-07-08T05:49:06;97824.00;;;17.50
18219;BMP180;9234;49.344;11.120;2023-07-08T05:51:36;97816.00;;;17.60
18219;BMP180;9234;49.344;11.120;2023-07-08T05:54:04;97826.00;;;17.80
18219;BMP180;9234;49.344;11.120;2023-07-08T05:56:34;97831.00;;;17.90
18219;BMP180;9234;49.344;11.120;2023-07-08T05:59:02;97832.00;;;18.10
18219;BMP180;9234;49.344;11.120;2023-07-08T06:01:31;97821.00;;;18.20
18219;BMP180;9234;49.344;11.120;2023-07-08T06:04:00;97826.00;;;18.40
18219;BMP180;9234;49.344;11.120;2023-07-08T06:06:29;97804.00;;;18.60
18219;BMP180;9234;49.344;11.120;2023-07-08T06:08:57;97829.00;;;18.70
18219;BMP180;9234;49.344;11.120;2023-07-08T06:11:27;97830.00;;;18.90
18219;BMP180;9234;49.344;11.120;2023-07-08T06:14:00;97815.00;;;19.10
18219;BMP180;9234;49.344;11.120;2023-07-08T06:16:29;97808.00;;;19.20
18219;BMP180;9234;49.344;11.120;2023-07-08T06:19:07;97809.00;;;19.40
18219;BMP180;9234;49.344;11.120;2023-07-08T06:21:36;97804.00;;;19.60
18219;BMP180;9234;49.344;11.120;2023-07-08T06:24:05;97807.00;;;19.70
18219;BMP180;9234;49.344;11.120;2023-07-08T06:26:33;97809.00;;;19.90
18219;BMP180;9234;49.344;11.120;2023-07-08T06:29:04;97809.00;;;20.10
18219;BMP180;9234;49.344;11.120;2023-07-08T06:31:32;97797.00;;;20.30
18219;BMP180;9234;49.344;11.120;2023-07-08T06:34:01;97801.00;;;20.50
18219;BMP180;9234;49.344;11.120;2023-07-08T06:36:29;97815.00;;;20.70
18219;BMP180;9234;49.344;11.120;2023-07-08T06:38:57;97812.00;;;20.90
18219;BMP180;9234;49.344;11.120;2023-07-08T06:41:26;97815.00;;;21.10
18219;BMP180;9234;49.344;11.120;2023-07-08T06:43:54;97811.00;;;21.20
18219;BMP180;9234;49.344;11.120;2023-07-08T06:46:27;97808.00;;;21.40
18219;BMP180;9234;49.344;11.120;2023-07-08T06:48:55;97809.00;;;21.60
18219;BMP180;9234;49.344;11.120;2023-07-08T06:51:23;97805.00;;;21.80
18219;BMP180;9234;49.344;11.120;2023-07-08T06:53:52;97804.00;;;22.00
18219;BMP180;9234;49.344;11.120;2023-07-08T06:56:20;97811.00;;;22.20
18219;BMP180;9234;49.344;11.120;2023-07-08T06:58:48;97810.00;;;22.40
18219;BMP180;9234;49.344;11.120;2023-07-08T07:01:17;97794.00;;;22.60
18219;BMP180;9234;49.344;11.120;2023-07-08T07:03:46;97792.00;;;22.90
18219;BMP180;9234;49.344;11.120;2023-07-08T07:06:15;97800.00;;;23.10
18219;BMP180;9234;49.344;11.120;2023-07-08T07:08:44;97801.00;;;23.30
18219;BMP180;9234;49.344;11.120;2023-07-08T07:11:12;97800.00;;;23.50
18219;BMP180;9234;49.344;11.120;2023-07-08T07:13:40;97806.00;;;23.70
18219;BMP180;9234;49.344;11.120;2023-07-08T07:16:09;97799.00;;;23.90
18219;BMP180;9234;49.344;11.120;2023-07-08T07:18:38;97791.00;;;24.10
18219;BMP180;9234;49.344;11.120;2023-07-08T07:21:07;97793.00;;;24.30
18219;BMP180;9234;49.344;11.120;2023-07-08T07:23:36;97795.00;;;24.50
18219;BMP180;9234;49.344;11.120;2023-07-08T07:26:04;97788.00;;;24.60
18219;BMP180;9234;49.344;11.120;2023-07-08T07:28:32;97793.00;;;24.80
18219;BMP180;9234;49.344;11.120;2023-07-08T07:31:01;97776.00;;;25.00
18219;BMP180;9234;49.344;11.120;2023-07-08T07:33:30;97789.00;;;25.10
18219;BMP180;9234;49.344;11.120;2023-07-08T07:35:59;97778.00;;;25.30
18219;BMP180;9234;49.344;11.120;2023-07-08T07:38:33;97785.00;;;25.50
18219;BMP180;9234;49.344;11.120;2023-07-08T07:41:01;97790.00;;;25.70
18219;BMP180;9234;49.344;11.120;2023-07-08T07:43:33;97796.00;;;25.80
18219;BMP180;9234;49.344;11.120;2023-07-08T07:46:01;97799.00;;;26.00
18219;BMP180;9234;49.344;11.120;2023-07-08T07:48:32;97805.00;;;26.10
18219;BMP180;9234;49.344;11.120;2023-07-08T07:51:00;97794.00;;;26.30
18219;BMP180;9234;49.344;11.120;2023-07-08T07:53:30;97803.00;;;26.40
18219;BMP180;9234;49.344;11.120;2023-07-08T07:56:00;97800.00;;;26.60
18219;BMP180;9234;49.344;11.120;2023-07-08T07:58:29;97805.00;;;26.70
18219;BMP180;9234;49.344;11.120;2023-07-08T08:00:58;97798.00;;;26.90
18219;BMP180;9234;49.344;11.120;2023-07-08T08:03:27;97799.00;;;27.00
18219;BMP180;9234;49.344;11.120;2023-07-08T08:05:55;97795.00;;;27.20
18219;BMP180;9234;49.344;11.120;2023-07-08T08:08:24;97802.00;;;27.30
18219;BMP180;9234;49.344;11.120;2023-07-08T08:10:53;97806.00;;;27.40
18219;BMP180;9234;49.344;11.120;2023-07-08T08:13:21;97811.00;;;27.60
18219;BMP180;9234;49.344;11.120;2023-07-08T08:15:56;97787.00;;;27.70
18219;BMP180;9234;49.344;11.120;2023-07-08T08:18:25;97799.00;;;27.90
18219;BMP180;9234;49.344;11.120;2023-07-08T08:20:54;97794.00;;;28.10
18219;BMP180;9234;49.344;11.120;2023-07-08T08:23:22;97793.00;;;28.20
18219;BMP180;9234;49.344;11.120;2023-07-08T08:25:52;97802.00;;;28.30
18219;BMP180;9234;49.344;11.120;2023-07-08T08:28:20;97803.00;;;28.40
18219;BMP180;9234;49.344;11.120;2023-07-08T08:30:50;97802.00;;;28.60
18219;BMP180;9234;49.344;11.120;2023-07-08T08:33:19;97807.00;;;28.90
18219;BMP180;9234;49.344;11.120;2023-07-08T08:35:48;97795.00;;;29.10
18219;BMP180;9234;49.344;11.120;2023-07-08T08:38:16;97799.00;;;29.20
18219;BMP180;9234;49.344;11.120;2023-07-08T08:40:45;97794.00;;;29.20
18219;BMP180;9234;49.344;11.120;2023-07-08T08:43:21;97801.00;;;29.30
18219;BMP180;9234;49.344;11.120;2023-07-08T08:45:56;97809.00;;;29.50
18219;BMP180;9234;49.344;11.120;2023-07-08T08:48:29;97800.00;;;29.60
18219;BMP180;9234;49.344;11.120;2023-07-08T08:51:06;97809.00;;;29.90
18219;BMP180;9234;49.344;11.120;2023-07-08T08:53:37;97805.00;;;30.10
18219;BMP180;9234;49.344;11.120;2023-07-08T08:56:15;97814.00;;;30.40
18219;BMP180;9234;49.344;11.120;2023-07-08T08:58:56;97813.00;;;30.60
18219;BMP180;9234;49.344;11.120;2023-07-08T09:01:26;97811.00;;;30.80
18219;BMP180;9234;49.344;11.120;2023-07-08T09:04:01;97812.00;;;31.00
18219;BMP180;9234;49.344;11.120;2023-07-08T09:06:34;97817.00;;;31.20
18219;BMP180;9234;49.344;11.120;2023-07-08T09:09:09;97807.00;;;31.40
18219;BMP180;9234;49.344;11.120;2023-07-08T09:11:51;97812.00;;;31.60
18219;BMP180;9234;49.344;11.120;2023-07-08T09:14:25;97818.00;;;31.80
18219;BMP180;9234;49.344;11.120;2023-07-08T09:17:10;97808.00;;;32.00
18219;BMP180;9234;49.344;11.120;2023-07-08T09:19:45;97810.00;;;32.20
18219;BMP180;9234;49.344;11.120;2023-07-08T09:22:31;97809.00;;;32.30
18219;BMP180;9234;49.344;11.120;2023-07-08T09:25:17;97819.00;;;32.50
18219;BMP180;9234;49.344;11.120;2023-07-08T09:27:47;97818.00;;;32.60
18219;BMP180;9234;49.344;11.120;2023-07-08T09:30:21;97818.00;;;32.80
18219;BMP180;9234;49.344;11.120;2023-07-08T09:32:50;97819.00;;;33.00
18219;BMP180;9234;49.344;11.120;2023-07-08T09:35:23;97817.00;;;33.10
18219;BMP180;9234;49.344;11.120;2023-07-08T09:37:52;97815.00;;;33.30
18219;BMP180;9234;49.344;11.120;2023-07-08T09:40:28;97822.00;;;33.40
18219;BMP180;9234;49.344;11.120;2023-07-08T09:43:02;97812.00;;;33.60
18219;BMP180;9234;49.344;11.120;2023-07-08T09:45:43;97813.00;;;33.70
18219;BMP180;9234;49.344;11.120;2023-07-08T09:48:17;97823.00;;;33.80
18219;BMP180;9234;49.344;11.120;2023-07-08T09:50:49;97815.00;;;33.90
18219;BMP180;9234;49.344;11.120;2023-07-08T09:53:19;97832.00;;;34.10
18219;BMP180;9234;49.344;11.120;2023-07-08T09:55:49;97821.00;;;34.30
18219;BMP180;9234;49.344;11.120;2023-07-08T09:58:24;97840.00;;;34.40
18219;BMP180;9234;49.344;11.120;2023-07-08T10:00:58;97833.00;;;34.60
18219;BMP180;9234;49.344;11.120;2023-07-08T10:03:33;97834.00;;;34.70
18219;BMP180;9234;49.344;11.120;2023-07-08T10:06:06;97834.00;;;34.80
18219;BMP180;9234;49.344;11.120;2023-07-08T10:08:43;97822.00;;;34.90
18219;BMP180;9234;49.344;11.120;2023-07-08T10:11:28;97822.00;;;34.90
18219;BMP180;9234;49.344;11.120;2023-07-08T10:14:01;97832.00;;;35.00
18219;BMP180;9234;49.344;11.120;2023-07-08T10:16:42;97825.00;;;35.10
18219;BMP180;9234;49.344;11.120;2023-07-08T10:19:16;97821.00;;;35.10
18219;BMP180;9234;49.344;11.120;2023-07-08T10:21:57;97826.00;;;35.20
18219;BMP180;9234;49.344;11.120;2023-07-08T10:24:45;97825.00;;;35.50
18219;BMP180;9234;49.344;11.120;2023-07-08T10:27:28;97821.00;;;35.80
18219;BMP180;9234;49.344;11.120;2023-07-08T10:30:14;97824.00;;;35.90
18219;BMP180;9234;49.344;11.120;2023-07-08T10:33:15;97821.00;;;36.00
18219;BMP180;9234;49.344;11.120;2023-07-08T10:36:03;97820.00;;;35.90
18219;BMP180;9234;49.344;11.120;2023-07-08T10:38:48;97821.00;;;35.80
18219;BMP180;9234;49.344;11.120;2023-07-08T10:41:29;97822.00;;;35.70
18219;BMP180;9234;49.344;11.120;2023-07-08T10:44:07;97820.00;;;35.80
18219;BMP180;9234;49.344;11.120;2023-07-08T10:46:49;97822.00;;;35.70
18219;BMP180;9234;49.344;11.120;2023-07-08T10:49:38;97823.00;;;35.60
18219;BMP180;9234;49.344;11.120;2023-07-08T10:52:42;97828.00;;;35.50
18219;BMP180;9234;49.344;11.120;2023-07-08T10:55:29;97828.00;;;35.30
18219;BMP180;9234;49.344;11.120;2023-07-08T10:58:36;97819.00;;;35.20
18219;BMP180;9234;49.344;11.120;2023-07-08T11:01:20;97820.00;;;35.00
18219;BMP180;9234;49.344;11.120;2023-07-08T11:04:17;97814.00;;;34.90
18219;BMP180;9234;49.344;11.120;2023-07-08T11:06:57;97816.00;;;34.80
18219;BMP180;9234;49.344;11.120;2023-07-08T11:09:32;97822.00;;;34.70
18219;BMP180;9234;49.344;11.120;2023-07-08T11:12:13;97813.00;;;34.60
18219;BMP180;9234;49.344;11.120;2023-07-08T11:14:54;97813.00;;;34.50
18219;BMP180;9234;49.344;11.120;2023-07-08T11:17:33;97817.00;;;34.50
18219;BMP180;9234;49.344;11.120;2023-07-08T11:20:16;97804.00;;;34.50
18219;BMP180;9234;49.344;11.120;2023-07-08T11:22:53;97811.00;;;34.50
18219;BMP180;9234;49.344;11.120;2023-07-08T11:25:25;97820.00;;;34.60
18219;BMP180;9234;49.344;11.120;2023-07-08T11:27:57;97813.00;;;34.70
18219;BMP180;9234;49.344;11.120;2023-07-08T11:30:30;97817.00;;;34.70
18219;BMP180;9234;49.344;11.120;2023-07-08T11:33:08;97814.00;;;34.90
18219;BMP180;9234;49.344;11.120;2023-07-08T11:35:42;97811.00;;;35.10
18219;BMP180;9234;49.344;11.120;2023-07-08T11:38:15;97810.00;;;35.20
18219;BMP180;9234;49.344;11.120;2023-07-08T11:40:54;97797.00;;;35.30
18219;BMP180;9234;49.344;11.120;2023-07-08T11:43:27;97798.00;;;35.40
18219;BMP180;9234;49.344;11.120;2023-07-08T11:45:57;97809.00;;;35.50
18219;BMP180;9234;49.344;11.120;2023-07-08T11:48:30;97797.00;;;35.30
18219;BMP180;9234;49.344;11.120;2023-07-08T11:51:05;97800.00;;;35.20
18219;BMP180;9234;49.344;11.120;2023-07-08T11:53:48;97798.00;;;35.10
18219;BMP180;9234;49.344;11.120;2023-07-08T11:56:23;97799.00;;;35.10
18219;BMP180;9234;49.344;11.120;2023-07-08T11:59:15;97799.00;;;34.90
18219;BMP180;9234;49.344;11.120;2023-07-08T12:01:51;97794.00;;;34.80
18219;BMP180;9234;49.344;11.120;2023-07-08T12:04:27;97792.00;;;34.80
18219;BMP180;9234;49.344;11.120;2023-07-08T12:07:20;97795.00;;;35.00
18219;BMP180;9234;49.344;11.120;2023-07-08T12:10:06;97798.00;;;35.40
18219;BMP180;9234;49.344;11.120;2023-07-08T12:12:42;97790.00;;;35.70
18219;BMP180;9234;49.344;11.120;2023-07-08T12:15:19;97792.00;;;36.10
18219;BMP180;9234;49.344;11.120;2023-07-08T12:17:50;97787.00;;;36.50
18219;BMP180;9234;49.344;11.120;2023-07-08T12:20:23;97787.00;;;36.60
18219;BMP180;9234;49.344;11.120;2023-07-08T12:22:52;97788.00;;;36.40
18219;BMP180;9234;49.344;11.120;2023-07-08T12:25:25;97791.00;;;36.20
18219;BMP180;9234;49.344;11.120;2023-07-08T12:27:54;97795.00;;;36.10
18219;BMP180;9234;49.344;11.120;2023-07-08T12:30:22;97789.00;;;36.30
18219;BMP180;9234;49.344;11.120;2023-07-08T12:32:51;97791.00;;;36.80
18219;BMP180;9234;49.344;11.120;2023-07-08T12:35:26;97797.00;;;37.20
18219;BMP180;9234;49.344;11.120;2023-07-08T12:38:00;97800.00;;;37.70
18219;BMP180;9234;49.344;11.120;2023-07-08T12:40:30;97794.00;;;38.00
18219;BMP180;9234;49.344;11.120;2023-07-08T12:42:59;97789.00;;;38.30
18219;BMP180;9234;49.344;11.120;2023-07-08T12:45:30;97785.00;;;38.40
18219;BMP180;9234;49.344;11.120;2023-07-08T12:47:59;97780.00;;;38.50
18219;BMP180;9234;49.344;11.120;2023-07-08T12:50:27;97784.00;;;38.20
18219;BMP180;9234;49.344;11.120;2023-07-08T12:52:56;97780.00;;;37.90
18219;BMP180;9234;49.344;11.120;2023-07-08T12:55:26;97784.00;;;37.60
18219;BMP180;9234;49.344;11.120;2023-07-08T12:57:56;97782.00;;;37.40
18219;BMP180;9234;49.344;11.120;2023-07-08T13:00:28;97780.00;;;37.10
18219;BMP180;9234;49.344;11.120;2023-07-08T13:03:06;97782.00;;;36.90
18219;BMP180;9234;49.344;11.120;2023-07-08T13:05:35;97778.00;;;36.80
18219;BMP180;9234;49.344;11.120;2023-07-08T13:08:04;97783.00;;;36.70
18219;BMP180;9234;49.344;11.120;2023-07-08T13:10:34;97780.00;;;36.80
18219;BMP180;9234;49.344;11.120;2023-07-08T13:13:11;97777.00;;;37.10
18219;BMP180;9234;49.344;11.120;2023-07-08T13:15:42;97784.00;;;37.50
18219;BMP180;9234;49.344;11.120;2023-07-08T13:18:15;97779.00;;;37.60
18219;BMP180;9234;49.344;11.120;2023-07-08T13:20:51;97786.00;;;37.60
18219;BMP180;9234;49.344;11.120;2023-07-08T13:23:21;97777.00;;;37.80
18219;BMP180;9234;49.344;11.120;2023-07-08T13:25:51;97788.00;;;38.70
18219;BMP180;9234;49.344;11.120;2023-07-08T13:28:25;97785.00;;;39.30
18219;BMP180;9234;49.344;11.120;2023-07-08T13:30:56;97782.00;;;40.10
18219;BMP180;9234;49.344;11.120;2023-07-08T13:33:30;97790.00;;;41.10
18219;BMP180;9234;49.344;11.120;2023-07-08T13:36:04;97787.00;;;41.90
18219;BMP180;9234;49.344;11.120;2023-07-08T13:38:35;97789.00;;;42.80
18219;BMP180;9234;49.344;11.120;2023-07-08T13:41:08;97792.00;;;43.60
18219;BMP180;9234;49.344;11.120;2023-07-08T13:43:40;97786.00;;;44.30
18219;BMP180;9234;49.344;11.120;2023-07-08T13:46:30;97787.00;;;45.00
18219;BMP180;9234;49.344;11.120;2023-07-08T13:49:09;97787.00;;;45.50
18219;BMP180;9234;49.344;11.120;2023-07-08T13:51:39;97780.00;;;45.70
18219;BMP180;9234;49.344;11.120;2023-07-08T13:54:15;97776.00;;;45.10
18219;BMP180;9234;49.344;11.120;2023-07-08T13:56:48;97772.00;;;44.00
18219;BMP180;9234;49.344;11.120;2023-07-08T13:59:23;97775.00;;;42.70
18219;BMP180;9234;49.344;11.120;2023-07-08T14:01:54;97772.00;;;41.80
18219;BMP180;9234;49.344;11.120;2023-07-08T14:04:28;97778.00;;;41.60
18219;BMP180;9234;49.344;11.120;2023-07-08T14:06:57;97775.00;;;42.40
18219;BMP180;9234;49.344;11.120;2023-07-08T14:09:25;97772.00;;;43.30
18219;BMP180;9234;49.344;11.120;2023-07-08T14:11:54;97770.00;;;44.40
18219;BMP180;9234;49.344;11.120;2023-07-08T14:14:23;97776.00;;;45.20
18219;BMP180;9234;49.344;11.120;2023-07-08T14:16:54;97780.00;;;45.90
18219;BMP180;9234;49.344;11.120;2023-07-08T14:19:25;97768.00;;;46.50
18219;BMP180;9234;49.344;11.120;2023-07-08T14:21:58;97776.00;;;47.10
18219;BMP180;9234;49.344;11.120;2023-07-08T14:24:27;97771.00;;;47.40
18219;BMP180;9234;49.344;11.120;2023-07-08T14:26:56;97767.00;;;47.30
18219;BMP180;9234;49.344;11.120;2023-07-08T14:29:26;97774.00;;;47.70
18219;BMP180;9234;49.344;11.120;2023-07-08T14:31:54;97775.00;;;48.30
18219;BMP180;9234;49.344;11.120;2023-07-08T14:34:25;97782.00;;;48.80
18219;BMP180;9234;49.344;11.120;2023-07-08T14:36:54;97779.00;;;48.50